sensor_id;sensor_type;location;lat;lon;timestamp;pressure;altitude;pressure_sealevel;temperature;humidity
61136;BME280;47021;51.340;12.432;2023-01-16T00:02:15;98819.97;;;8.11;60.64
61136;BME280;47021;51.340;12.432;2023-01-16T00:04:40;98814.75;;;8.20;60.10
61136;BME280;47021;51.340;12.432;2023-01-16T00:07:06;98811.59;;;8.17;60.26
61136;BME280;47021;51.340;12.432;2023-01-16T00:09:43;98813.75;;;8.31;59.92
61136;BME280;47021;51.340;12.432;2023-01-16T00:12:21;98808.13;;;8.53;59.66
61136;BME280;47021;51.340;12.432;2023-01-16T00:14:52;98808.88;;;8.45;59.45
61136;BME280;47021;51.340;12.432;2023-01-16T00:17:31;98799.59;;;8.61;59.19
61136;BME280;47021;51.340;12.432;2023-01-16T00:19:56;98802.63;;;8.56;59.37
61136;BME280;47021;51.340;12.432;2023-01-16T00:22:27;98796.16;;;8.42;59.56
61136;BME280;47021;51.340;12.432;2023-01-16T00:25:01;98799.03;;;8.39;60.16
61136;BME280;47021;51.340;12.432;2023-01-16T00:27:26;98798.97;;;8.31;60.05
61136;BME280;47021;51.340;12.432;2023-01-16T00:29:51;98792.22;;;8.38;59.74
61136;BME280;47021;51.340;12.432;2023-01-16T00:32:18;98794.28;;;8.25;60.13
61136;BME280;47021;51.340;12.432;2023-01-16T00:34:45;98783.53;;;8.47;59.98
61136;BME280;47021;51.340;12.432;2023-01-16T00:37:18;98780.28;;;8.45;59.55
61136;BME280;47021;51.340;12.432;2023-01-16T00:39:45;98782.22;;;8.61;59.60
61136;BME280;47021;51.340;12.432;2023-01-16T00:42:11;98781.66;;;8.58;59.34
61136;BME280;47021;51.340;12.432;2023-01-16T00:44:36;98779.72;;;8.60;59.58
61136;BME280;47021;51.340;12.432;2023-01-16T00:47:07;98772.19;;;8.66;58.80
61136;BME280;47021;51.340;12.432;2023-01-16T00:49:43;98776.56;;;8.66;59.17
61136;BME280;47021;51.340;12.432;2023-01-16T00:52:09;98771.81;;;8.61;59.18
61136;BME280;47021;51.340;12.432;2023-01-16T00:54:42;98773.34;;;8.72;59.09
61136;BME280;47021;51.340;12.432;2023-01-16T00:59:58;98770.81;;;8.62;59.13
61136;BME280;47021;51.340;12.432;2023-01-16T01:03:44;98767.97;;;7.83;61.76
61136;BME280;47021;51.340;12.432;2023-01-16T01:06:18;98770.53;;;8.47;60.01
61136;BME280;47021;51.340;12.432;2023-01-16T01:08:45;98757.50;;;8.83;58.38
61136;BME280;47021;51.340;12.432;2023-01-16T01:11:12;98764.22;;;8.85;58.25
61136;BME280;47021;51.340;12.432;2023-01-16T01:13:44;98760.88;;;8.93;57.99
61136;BME280;47021;51.340;12.432;2023-01-16T01:16:24;98762.44;;;8.86;58.00
61136;BME280;47021;51.340;12.432;2023-01-16T01:18:55;98752.91;;;8.94;57.85
61136;BME280;47021;51.340;12.432;2023-01-16T01:21:21;98752.09;;;9.19;57.30
61136;BME280;47021;51.340;12.432;2023-01-16T01:23:48;98753.56;;;8.96;58.17
61136;BME280;47021;51.340;12.432;2023-01-16T01:26:20;98743.00;;;8.80;57.63
61136;BME280;47021;51.340;12.432;2023-01-16T01:28:48;98733.06;;;8.76;57.90
61136;BME280;47021;51.340;12.432;2023-01-16T01:31:13;98735.78;;;8.92;57.87
61136;BME280;47021;51.340;12.432;2023-01-16T01:33:39;98737.94;;;8.96;57.31
61136;BME280;47021;51.340;12.432;2023-01-16T01:36:12;98723.22;;;8.87;56.99
61136;BME280;47021;51.340;12.432;2023-01-16T01:38:49;98719.53;;;8.72;57.59
61136;BME280;47021;51.340;12.432;2023-01-16T01:41:17;98719.25;;;8.40;58.44
61136;BME280;47021;51.340;12.432;2023-01-16T01:43:46;98715.59;;;8.50;58.36
61136;BME280;47021;51.340;12.432;2023-01-16T01:49:06;98715.50;;;8.25;58.75
61136;BME280;47021;51.340;12.432;2023-01-16T01:51:47;98709.78;;;8.39;58.39
61136;BME280;47021;51.340;12.432;2023-01-16T02:02:22;98687.66;;;7.90;59.41
61136;BME280;47021;51.340;12.432;2023-01-16T02:04:52;98684.56;;;8.31;58.49
61136;BME280;47021;51.340;12.432;2023-01-16T02:07:20;98688.72;;;7.97;58.87
61136;BME280;47021;51.340;12.432;2023-01-16T02:09:47;98685.75;;;8.10;58.61
61136;BME280;47021;51.340;12.432;2023-01-16T02:12:18;98689.88;;;7.85;59.64
61136;BME280;47021;51.340;12.432;2023-01-16T02:14:46;98679.06;;;8.07;58.95
61136;BME280;47021;51.340;12.432;2023-01-16T02:17:30;98677.22;;;8.17;58.82
61136;BME280;47021;51.340;12.432;2023-01-16T02:57:59;98607.88;;;7.55;59.83
61136;BME280;47021;51.340;12.432;2023-01-16T03:00:26;98591.09;;;7.50;59.53
61136;BME280;47021;51.340;12.432;2023-01-16T03:02:52;98594.06;;;7.55;59.68
61136;BME280;47021;51.340;12.432;2023-01-16T03:05:26;98599.22;;;7.82;59.04
61136;BME280;47021;51.340;12.432;2023-01-16T03:13:39;98575.41;;;7.69;58.79
61136;BME280;47021;51.340;12.432;2023-01-16T03:18:59;98568.56;;;7.68;59.04
61136;BME280;47021;51.340;12.432;2023-01-16T03:26:55;98553.13;;;7.49;59.87
61136;BME280;47021;51.340;12.432;2023-01-16T03:32:11;98542.56;;;7.33;60.19
61136;BME280;47021;51.340;12.432;2023-01-16T03:37:33;98535.59;;;7.51;59.88
61136;BME280;47021;51.340;12.432;2023-01-16T03:40:03;98528.91;;;7.48;59.84
61136;BME280;47021;51.340;12.432;2023-01-16T03:42:52;98530.53;;;7.32;60.46
61136;BME280;47021;51.340;12.432;2023-01-16T03:45:29;98524.06;;;7.36;60.00
61136;BME280;47021;51.340;12.432;2023-01-16T03:48:10;98523.66;;;7.40;60.23
61136;BME280;47021;51.340;12.432;2023-01-16T03:50:37;98526.44;;;7.29;61.10
61136;BME280;47021;51.340;12.432;2023-01-16T03:53:06;98524.00;;;7.28;60.96
61136;BME280;47021;51.340;12.432;2023-01-16T03:55:39;98527.09;;;7.31;60.95
61136;BME280;47021;51.340;12.432;2023-01-16T03:58:15;98512.28;;;7.41;60.74
61136;BME280;47021;51.340;12.432;2023-01-16T04:03:35;98507.38;;;7.21;61.06
61136;BME280;47021;51.340;12.432;2023-01-16T04:06:10;98498.28;;;7.52;60.52
61136;BME280;47021;51.340;12.432;2023-01-16T04:11:21;98500.88;;;7.52;60.21
61136;BME280;47021;51.340;12.432;2023-01-16T04:16:33;98491.97;;;7.54;60.30
61136;BME280;47021;51.340;12.432;2023-01-16T04:21:43;98477.50;;;7.52;60.43
61136;BME280;47021;51.340;12.432;2023-01-16T04:26:52;98476.66;;;7.34;60.86
61136;BME280;47021;51.340;12.432;2023-01-16T04:29:28;98472.47;;;7.33;60.78
61136;BME280;47021;51.340;12.432;2023-01-16T04:31:59;98471.41;;;7.43;60.25
61136;BME280;47021;51.340;12.432;2023-01-16T04:37:24;98445.31;;;7.62;59.91
61136;BME280;47021;51.340;12.432;2023-01-16T04:39:49;98440.84;;;7.02;61.49
61136;BME280;47021;51.340;12.432;2023-01-16T04:42:22;98433.31;;;7.26;60.82
61136;BME280;47021;51.340;12.432;2023-01-16T04:44:54;98418.38;;;7.46;60.54
61136;BME280;47021;51.340;12.432;2023-01-16T04:47:25;98420.38;;;7.17;60.99
61136;BME280;47021;51.340;12.432;2023-01-16T04:49:52;98407.56;;;7.33;60.48
61136;BME280;47021;51.340;12.432;2023-01-16T04:52:23;98404.28;;;7.48;60.42
61136;BME280;47021;51.340;12.432;2023-01-16T04:57:24;98401.44;;;7.59;60.32
61136;BME280;47021;51.340;12.432;2023-01-16T05:02:31;98394.78;;;7.39;60.44
61136;BME280;47021;51.340;12.432;2023-01-16T05:04:56;98393.25;;;7.29;60.84
61136;BME280;47021;51.340;12.432;2023-01-16T05:07:23;98388.34;;;7.43;60.37
61136;BME280;47021;51.340;12.432;2023-01-16T05:09:50;98395.00;;;7.10;61.45
61136;BME280;47021;51.340;12.432;2023-01-16T05:12:15;98385.22;;;7.22;61.33
61136;BME280;47021;51.340;12.432;2023-01-16T05:14:42;98380.78;;;7.32;60.22
61136;BME280;47021;51.340;12.432;2023-01-16T05:17:08;98367.06;;;7.40;60.45
61136;BME280;47021;51.340;12.432;2023-01-16T05:19:41;98365.72;;;7.18;61.07
61136;BME280;47021;51.340;12.432;2023-01-16T05:22:14;98368.41;;;7.08;61.20
61136;BME280;47021;51.340;12.432;2023-01-16T05:24:39;98365.38;;;6.95;61.26
61136;BME280;47021;51.340;12.432;2023-01-16T05:27:07;98353.78;;;7.25;60.50
61136;BME280;47021;51.340;12.432;2023-01-16T05:29:34;98350.59;;;7.31;60.81
61136;BME280;47021;51.340;12.432;2023-01-16T05:32:01;98354.97;;;7.31;60.16
61136;BME280;47021;51.340;12.432;2023-01-16T05:34:34;98346.28;;;7.40;60.10
61136;BME280;47021;51.340;12.432;2023-01-16T05:36:59;98343.50;;;7.33;60.02
61136;BME280;47021;51.340;12.432;2023-01-16T05:39:25;98342.00;;;7.31;60.39
61136;BME280;47021;51.340;12.432;2023-01-16T05:41:59;98333.88;;;7.08;60.87
61136;BME280;47021;51.340;12.432;2023-01-16T05:44:25;98332.72;;;7.10;60.97
61136;BME280;47021;51.340;12.432;2023-01-16T05:47:03;98312.22;;;6.99;61.27
61136;BME280;47021;51.340;12.432;2023-01-16T05:49:30;98317.97;;;7.29;60.36
61136;BME280;47021;51.340;12.432;2023-01-16T05:51:56;98307.19;;;7.41;60.19
61136;BME280;47021;51.340;12.432;2023-01-16T05:54:24;98302.16;;;7.22;60.76
61136;BME280;47021;51.340;12.432;2023-01-16T05:56:59;98305.81;;;7.11;60.88
61136;BME280;47021;51.340;12.432;2023-01-16T05:59:26;98317.88;;;7.38;60.01
61136;BME280;47021;51.340;12.432;2023-01-16T06:01:52;98311.34;;;6.91;61.13
61136;BME280;47021;51.340;12.432;2023-01-16T06:04:24;98306.28;;;6.72;61.17
61136;BME280;47021;51.340;12.432;2023-01-16T06:09:41;98304.19;;;7.10;60.64
61136;BME280;47021;51.340;12.432;2023-01-16T06:15:11;98288.00;;;7.34;59.79
61136;BME280;47021;51.340;12.432;2023-01-16T06:17:48;98287.22;;;6.81;60.86
61136;BME280;47021;51.340;12.432;2023-01-16T06:20:19;98289.38;;;6.85;60.89
61136;BME280;47021;51.340;12.432;2023-01-16T06:22:46;98285.16;;;7.20;59.99
61136;BME280;47021;51.340;12.432;2023-01-16T06:27:50;98279.47;;;6.98;60.50
61136;BME280;47021;51.340;12.432;2023-01-16T06:30:28;98278.56;;;6.72;61.05
61136;BME280;47021;51.340;12.432;2023-01-16T06:33:20;98283.53;;;7.01;60.62
61136;BME280;47021;51.340;12.432;2023-01-16T06:35:56;98278.78;;;6.79;60.76
61136;BME280;47021;51.340;12.432;2023-01-16T06:41:12;98275.69;;;6.93;60.25
61136;BME280;47021;51.340;12.432;2023-01-16T06:43:43;98279.91;;;6.94;60.11
61136;BME280;47021;51.340;12.432;2023-01-16T06:46:14;98274.06;;;6.92;60.17
61136;BME280;47021;51.340;12.432;2023-01-16T06:48:40;98272.47;;;7.17;59.90
61136;BME280;47021;51.340;12.432;2023-01-16T06:51:05;98275.22;;;6.97;60.31
61136;BME280;47021;51.340;12.432;2023-01-16T06:53:30;98281.00;;;7.09;59.83
61136;BME280;47021;51.340;12.432;2023-01-16T06:55:58;98288.63;;;7.10;60.29
61136;BME280;47021;51.340;12.432;2023-01-16T06:58:35;98285.06;;;7.11;59.96
61136;BME280;47021;51.340;12.432;2023-01-16T07:03:29;98272.41;;;7.34;59.08
61136;BME280;47021;51.340;12.432;2023-01-16T07:05:55;98270.34;;;7.38;59.06
61136;BME280;47021;51.340;12.432;2023-01-16T07:08:33;98267.81;;;7.02;60.11
61136;BME280;47021;51.340;12.432;2023-01-16T07:11:01;98275.72;;;7.19;59.64
61136;BME280;47021;51.340;12.432;2023-01-16T07:13:27;98268.34;;;7.32;59.31
61136;BME280;47021;51.340;12.432;2023-01-16T07:15:52;98262.38;;;7.13;59.54
61136;BME280;47021;51.340;12.432;2023-01-16T07:18:17;98260.44;;;7.16;59.21
61136;BME280;47021;51.340;12.432;2023-01-16T07:20:56;98253.75;;;7.31;59.17
61136;BME280;47021;51.340;12.432;2023-01-16T07:23:27;98245.78;;;7.06;59.24
61136;BME280;47021;51.340;12.432;2023-01-16T07:25:54;98239.53;;;7.17;59.38
61136;BME280;47021;51.340;12.432;2023-01-16T07:28:20;98241.03;;;7.20;58.95
61136;BME280;47021;51.340;12.432;2023-01-16T07:30:52;98235.69;;;7.55;58.38
61136;BME280;47021;51.340;12.432;2023-01-16T07:33:31;98229.84;;;7.27;58.77
61136;BME280;47021;51.340;12.432;2023-01-16T07:35:58;98238.88;;;7.41;58.58
61136;BME280;47021;51.340;12.432;2023-01-16T07:41:08;98226.78;;;7.57;58.01
61136;BME280;47021;51.340;12.432;2023-01-16T07:43:45;98220.41;;;7.18;59.10
61136;BME280;47021;51.340;12.432;2023-01-16T07:48:47;98203.78;;;7.29;58.68
61136;BME280;47021;51.340;12.432;2023-01-16T07:51:25;98190.78;;;7.03;59.18
61136;BME280;47021;51.340;12.432;2023-01-16T07:53:53;98181.47;;;7.18;58.94
61136;BME280;47021;51.340;12.432;2023-01-16T07:56:24;98182.00;;;7.22;58.49
61136;BME280;47021;51.340;12.432;2023-01-16T07:58:49;98175.78;;;7.15;58.89
61136;BME280;47021;51.340;12.432;2023-01-16T08:01:16;98166.44;;;7.30;58.31
61136;BME280;47021;51.340;12.432;2023-01-16T08:06:15;98156.56;;;7.67;57.33
61136;BME280;47021;51.340;12.432;2023-01-16T08:08:43;98145.56;;;7.05;58.81
61136;BME280;47021;51.340;12.432;2023-01-16T08:11:08;98140.53;;;7.38;57.72
61136;BME280;47021;51.340;12.432;2023-01-16T08:13:33;98139.25;;;7.42;57.75
61136;BME280;47021;51.340;12.432;2023-01-16T08:16:01;98128.28;;;7.56;57.07
61136;BME280;47021;51.340;12.432;2023-01-16T08:18:26;98124.88;;;7.63;56.94
61136;BME280;47021;51.340;12.432;2023-01-16T08:21:06;98124.97;;;7.46;57.74
61136;BME280;47021;51.340;12.432;2023-01-16T08:26:30;98121.00;;;7.75;56.83
61136;BME280;47021;51.340;12.432;2023-01-16T08:28:58;98116.97;;;7.81;56.37
61136;BME280;47021;51.340;12.432;2023-01-16T08:31:25;98098.75;;;7.65;56.63
61136;BME280;47021;51.340;12.432;2023-01-16T08:33:52;98105.59;;;7.82;55.96
61136;BME280;47021;51.340;12.432;2023-01-16T08:39:09;98091.03;;;7.97;55.87
61136;BME280;47021;51.340;12.432;2023-01-16T08:41:36;98087.44;;;7.98;55.12
61136;BME280;47021;51.340;12.432;2023-01-16T08:44:06;98076.06;;;8.07;55.66
61136;BME280;47021;51.340;12.432;2023-01-16T08:46:39;98069.59;;;8.03;55.63
61136;BME280;47021;51.340;12.432;2023-01-16T08:49:05;98071.72;;;8.16;55.47
61136;BME280;47021;51.340;12.432;2023-01-16T08:51:41;98067.81;;;8.04;55.83
61136;BME280;47021;51.340;12.432;2023-01-16T08:54:07;98061.78;;;8.43;54.90
61136;BME280;47021;51.340;12.432;2023-01-16T08:56:46;98063.28;;;8.38;54.72
61136;BME280;47021;51.340;12.432;2023-01-16T08:59:22;98048.66;;;8.29;55.30
61136;BME280;47021;51.340;12.432;2023-01-16T09:02:01;98048.00;;;8.27;54.83
61136;BME280;47021;51.340;12.432;2023-01-16T09:07:09;98042.13;;;7.93;55.57
61136;BME280;47021;51.340;12.432;2023-01-16T09:09:44;98031.41;;;8.12;55.27
61136;BME280;47021;51.340;12.432;2023-01-16T09:14:55;98022.97;;;8.42;54.26
61136;BME280;47021;51.340;12.432;2023-01-16T09:17:26;98022.00;;;8.35;54.77
61136;BME280;47021;51.340;12.432;2023-01-16T09:22:47;98013.69;;;8.07;54.92
61136;BME280;47021;51.340;12.432;2023-01-16T09:35:56;98005.06;;;8.47;53.86
61136;BME280;47021;51.340;12.432;2023-01-16T09:38:33;98008.09;;;8.75;53.90
61136;BME280;47021;51.340;12.432;2023-01-16T09:41:01;97999.72;;;8.40;54.31
61136;BME280;47021;51.340;12.432;2023-01-16T09:46:17;97989.47;;;8.94;53.60
61136;BME280;47021;51.340;12.432;2023-01-16T09:48:45;97995.09;;;8.67;53.88
61136;BME280;47021;51.340;12.432;2023-01-16T09:56:48;97974.69;;;9.25;52.64
61136;BME280;47021;51.340;12.432;2023-01-16T10:04:45;97970.84;;;9.36;52.11
61136;BME280;47021;51.340;12.432;2023-01-16T10:10:00;97942.44;;;9.26;52.52
61136;BME280;47021;51.340;12.432;2023-01-16T10:12:32;97937.53;;;9.54;51.96
61136;BME280;47021;51.340;12.432;2023-01-16T10:20:28;97914.09;;;9.91;51.38
61136;BME280;47021;51.340;12.432;2023-01-16T10:28:08;97913.16;;;9.84;50.77
61136;BME280;47021;51.340;12.432;2023-01-16T10:30:38;97898.59;;;9.75;51.06
61136;BME280;47021;51.340;12.432;2023-01-16T10:35:39;97899.78;;;9.87;50.87
61136;BME280;47021;51.340;12.432;2023-01-16T10:38:12;97882.78;;;9.76;51.02
61136;BME280;47021;51.340;12.432;2023-01-16T10:40:40;97874.88;;;10.22;50.38
61136;BME280;47021;51.340;12.432;2023-01-16T10:43:10;97868.81;;;10.50;49.96
61136;BME280;47021;51.340;12.432;2023-01-16T10:45:55;97873.94;;;10.44;49.64
61136;BME280;47021;51.340;12.432;2023-01-16T10:48:24;97859.84;;;10.24;50.19
61136;BME280;47021;51.340;12.432;2023-01-16T10:50:57;97860.97;;;10.07;50.14
61136;BME280;47021;51.340;12.432;2023-01-16T10:53:24;97850.81;;;10.55;49.79
61136;BME280;47021;51.340;12.432;2023-01-16T10:55:51;97845.72;;;10.69;49.76
61136;BME280;47021;51.340;12.432;2023-01-16T10:58:28;97841.06;;;10.64;49.78
61136;BME280;47021;51.340;12.432;2023-01-16T11:03:39;97828.44;;;11.24;48.25
61136;BME280;47021;51.340;12.432;2023-01-16T11:06:07;97815.78;;;11.28;47.71
61136;BME280;47021;51.340;12.432;2023-01-16T11:08:40;97808.41;;;11.10;48.54
61136;BME280;47021;51.340;12.432;2023-01-16T11:11:09;97801.75;;;11.08;48.25
61136;BME280;47021;51.340;12.432;2023-01-16T11:16:22;97788.88;;;10.85;48.54
61136;BME280;47021;51.340;12.432;2023-01-16T11:18:51;97792.44;;;10.99;48.38
61136;BME280;47021;51.340;12.432;2023-01-16T11:21:22;97778.75;;;11.18;47.84
61136;BME280;47021;51.340;12.432;2023-01-16T11:23:48;97770.00;;;10.83;47.87
61136;BME280;47021;51.340;12.432;2023-01-16T11:26:14;97765.34;;;10.79;47.96
61136;BME280;47021;51.340;12.432;2023-01-16T11:28:39;97768.97;;;11.05;48.38
61136;BME280;47021;51.340;12.432;2023-01-16T11:31:20;97753.84;;;11.22;47.77
61136;BME280;47021;51.340;12.432;2023-01-16T11:33:47;97746.59;;;11.45;47.44
61136;BME280;47021;51.340;12.432;2023-01-16T11:36:23;97734.66;;;11.64;47.07
61136;BME280;47021;51.340;12.432;2023-01-16T11:39:01;97731.44;;;11.06;47.37
61136;BME280;47021;51.340;12.432;2023-01-16T11:44:23;97726.59;;;11.03;47.48
61136;BME280;47021;51.340;12.432;2023-01-16T11:46:49;97701.34;;;11.10;46.52
61136;BME280;47021;51.340;12.432;2023-01-16T11:52:05;97691.81;;;11.30;46.56
61136;BME280;47021;51.340;12.432;2023-01-16T11:54:31;97682.78;;;10.78;46.95
61136;BME280;47021;51.340;12.432;2023-01-16T11:59:46;97656.47;;;11.00;46.39
61136;BME280;47021;51.340;12.432;2023-01-16T12:05:04;97654.41;;;11.64;45.76
61136;BME280;47021;51.340;12.432;2023-01-16T12:13:04;97625.53;;;10.97;46.07
61136;BME280;47021;51.340;12.432;2023-01-16T12:26:14;97598.25;;;11.47;45.50
61136;BME280;47021;51.340;12.432;2023-01-16T12:39:02;97560.19;;;11.25;45.47
61136;BME280;47021;51.340;12.432;2023-01-16T12:41:33;97556.63;;;10.98;46.35
61136;BME280;47021;51.340;12.432;2023-01-16T12:49:17;97538.38;;;11.46;45.56
61136;BME280;47021;51.340;12.432;2023-01-16T12:51:57;97516.03;;;11.37;45.04
61136;BME280;47021;51.340;12.432;2023-01-16T13:02:00;97490.03;;;11.82;44.90
61136;BME280;47021;51.340;12.432;2023-01-16T13:04:32;97480.16;;;11.78;44.79
61136;BME280;47021;51.340;12.432;2023-01-16T13:07:01;97472.94;;;11.80;44.30
61136;BME280;47021;51.340;12.432;2023-01-16T13:14:29;97445.97;;;11.86;44.83
61136;BME280;47021;51.340;12.432;2023-01-16T13:19:51;97431.06;;;12.06;44.48
61136;BME280;47021;51.340;12.432;2023-01-16T13:22:25;97426.03;;;12.11;44.28
61136;BME280;47021;51.340;12.432;2023-01-16T13:24:56;97421.44;;;12.00;44.72
61136;BME280;47021;51.340;12.432;2023-01-16T13:27:47;97424.84;;;11.74;45.10
61136;BME280;47021;51.340;12.432;2023-01-16T13:30:18;97415.97;;;11.56;45.62
61136;BME280;47021;51.340;12.432;2023-01-16T13:35:28;97414.16;;;11.43;46.05
61136;BME280;47021;51.340;12.432;2023-01-16T13:46:27;97395.44;;;11.33;47.21
61136;BME280;47021;51.340;12.432;2023-01-16T13:48:53;97398.25;;;11.45;47.15
61136;BME280;47021;51.340;12.432;2023-01-16T13:51:29;97391.84;;;11.47;47.11
61136;BME280;47021;51.340;12.432;2023-01-16T13:54:02;97384.16;;;11.06;48.17
61136;BME280;47021;51.340;12.432;2023-01-16T13:56:28;97380.03;;;10.78;49.12
61136;BME280;47021;51.340;12.432;2023-01-16T13:58:55;97366.56;;;10.68;49.65
61136;BME280;47021;51.340;12.432;2023-01-16T14:01:53;97372.03;;;10.79;48.40
61136;BME280;47021;51.340;12.432;2023-01-16T14:04:25;97370.69;;;11.09;48.47
61136;BME280;47021;51.340;12.432;2023-01-16T14:07:01;97363.88;;;11.21;47.86
61136;BME280;47021;51.340;12.432;2023-01-16T14:09:27;97356.19;;;10.94;48.55
61136;BME280;47021;51.340;12.432;2023-01-16T14:11:59;97354.41;;;11.14;48.14
61136;BME280;47021;51.340;12.432;2023-01-16T14:17:09;97345.50;;;10.76;49.36
61136;BME280;47021;51.340;12.432;2023-01-16T14:22:23;97342.84;;;10.56;50.02
61136;BME280;47021;51.340;12.432;2023-01-16T14:24:53;97339.88;;;10.66;49.84
61136;BME280;47021;51.340;12.432;2023-01-16T14:27:38;97341.41;;;10.47;50.39
61136;BME280;47021;51.340;12.432;2023-01-16T14:30:15;97333.06;;;10.84;49.25
61136;BME280;47021;51.340;12.432;2023-01-16T14:32:46;97323.78;;;10.62;49.74
61136;BME280;47021;51.340;12.432;2023-01-16T14:35:14;97329.69;;;10.84;48.86
61136;BME280;47021;51.340;12.432;2023-01-16T14:40:27;97316.63;;;10.97;48.41
61136;BME280;47021;51.340;12.432;2023-01-16T14:42:54;97310.59;;;10.96;48.47
61136;BME280;47021;51.340;12.432;2023-01-16T14:53:20;97302.31;;;10.67;48.95
61136;BME280;47021;51.340;12.432;2023-01-16T14:58:35;97294.69;;;10.58;48.49
61136;BME280;47021;51.340;12.432;2023-01-16T15:01:02;97287.25;;;10.62;48.27
61136;BME280;47021;51.340;12.432;2023-01-16T15:03:29;97287.63;;;10.59;48.12
61136;BME280;47021;51.340;12.432;2023-01-16T15:05:56;97278.47;;;10.76;48.20
61136;BME280;47021;51.340;12.432;2023-01-16T15:08:26;97280.00;;;10.51;48.98
61136;BME280;47021;51.340;12.432;2023-01-16T15:10:53;97269.59;;;10.71;48.99
61136;BME280;47021;51.340;12.432;2023-01-16T15:13:22;97277.63;;;10.62;48.72
61136;BME280;47021;51.340;12.432;2023-01-16T15:18:24;97271.34;;;9.97;50.96
61136;BME280;47021;51.340;12.432;2023-01-16T15:20:50;97258.06;;;10.26;50.31
61136;BME280;47021;51.340;12.432;2023-01-16T15:23:24;97262.25;;;10.27;50.15
61136;BME280;47021;51.340;12.432;2023-01-16T15:30:45;97261.53;;;10.46;49.11
61136;BME280;47021;51.340;12.432;2023-01-16T15:35:57;97254.44;;;10.27;49.11
61136;BME280;47021;51.340;12.432;2023-01-16T15:38:26;97250.31;;;10.05;49.90
61136;BME280;47021;51.340;12.432;2023-01-16T15:40:52;97249.47;;;9.91;49.96
61136;BME280;47021;51.340;12.432;2023-01-16T15:46:06;97239.84;;;9.91;49.88
61136;BME280;47021;51.340;12.432;2023-01-16T15:48:54;97228.38;;;9.86;50.13
61136;BME280;47021;51.340;12.432;2023-01-16T15:51:22;97227.81;;;9.90;49.34
61136;BME280;47021;51.340;12.432;2023-01-16T15:53:48;97231.19;;;9.84;50.12
61136;BME280;47021;51.340;12.432;2023-01-16T15:58:45;97216.56;;;9.49;50.21
61136;BME280;47021;51.340;12.432;2023-01-16T16:01:12;97210.31;;;9.78;50.22
61136;BME280;47021;51.340;12.432;2023-01-16T16:03:38;97209.06;;;9.67;50.56
61136;BME280;47021;51.340;12.432;2023-01-16T16:06:06;97209.03;;;9.61;50.79
61136;BME280;47021;51.340;12.432;2023-01-16T16:08:37;97208.91;;;9.75;50.52
61136;BME280;47021;51.340;12.432;2023-01-16T16:11:05;97210.22;;;9.99;49.88
61136;BME280;47021;51.340;12.432;2023-01-16T16:13:31;97211.19;;;9.91;50.31
61136;BME280;47021;51.340;12.432;2023-01-16T16:15:59;97204.25;;;10.12;49.43
61136;BME280;47021;51.340;12.432;2023-01-16T16:18:27;97203.78;;;10.02;49.55
61136;BME280;47021;51.340;12.432;2023-01-16T16:21:02;97197.53;;;9.83;50.39
61136;BME280;47021;51.340;12.432;2023-01-16T16:23:30;97189.97;;;9.60;50.95
61136;BME280;47021;51.340;12.432;2023-01-16T16:26:02;97193.38;;;9.61;50.99
61136;BME280;47021;51.340;12.432;2023-01-16T16:33:38;97193.66;;;9.72;50.72
61136;BME280;47021;51.340;12.432;2023-01-16T16:38:56;97195.53;;;9.85;49.62
61136;BME280;47021;51.340;12.432;2023-01-16T16:44:07;97194.50;;;9.86;49.67
61136;BME280;47021;51.340;12.432;2023-01-16T16:51:42;97184.50;;;9.89;49.01
61136;BME280;47021;51.340;12.432;2023-01-16T16:54:12;97187.84;;;9.77;48.73
61136;BME280;47021;51.340;12.432;2023-01-16T16:56:41;97186.06;;;9.77;49.18
61136;BME280;47021;51.340;12.432;2023-01-16T16:59:21;97173.56;;;9.60;49.10
61136;BME280;47021;51.340;12.432;2023-01-16T17:01:53;97168.81;;;9.76;48.29
61136;BME280;47021;51.340;12.432;2023-01-16T17:04:21;97169.09;;;9.94;48.65
61136;BME280;47021;51.340;12.432;2023-01-16T17:06:56;97162.59;;;9.77;48.38
61136;BME280;47021;51.340;12.432;2023-01-16T17:09:24;97170.19;;;9.66;48.35
61136;BME280;47021;51.340;12.432;2023-01-16T17:11:51;97163.41;;;9.78;48.34
61136;BME280;47021;51.340;12.432;2023-01-16T17:14:17;97154.44;;;9.87;48.19
61136;BME280;47021;51.340;12.432;2023-01-16T17:16:56;97154.19;;;9.75;48.21
61136;BME280;47021;51.340;12.432;2023-01-16T17:19:22;97149.22;;;9.93;48.78
61136;BME280;47021;51.340;12.432;2023-01-16T17:24:34;97138.22;;;9.98;48.33
61136;BME280;47021;51.340;12.432;2023-01-16T17:27:16;97133.75;;;9.85;48.17
61136;BME280;47021;51.340;12.432;2023-01-16T17:29:41;97131.75;;;9.81;48.46
61136;BME280;47021;51.340;12.432;2023-01-16T17:32:13;97135.38;;;9.80;48.21
61136;BME280;47021;51.340;12.432;2023-01-16T17:34:48;97115.44;;;9.59;48.51
61136;BME280;47021;51.340;12.432;2023-01-16T17:37:19;97109.66;;;9.70;48.72
61136;BME280;47021;51.340;12.432;2023-01-16T17:39:46;97112.50;;;9.75;48.71
61136;BME280;47021;51.340;12.432;2023-01-16T17:42:12;97102.91;;;9.82;48.20
61136;BME280;47021;51.340;12.432;2023-01-16T17:44:37;97087.19;;;9.56;48.61
61136;BME280;47021;51.340;12.432;2023-01-16T17:47:05;97082.03;;;9.69;48.79
61136;BME280;47021;51.340;12.432;2023-01-16T17:49:38;97076.00;;;9.62;48.48
61136;BME280;47021;51.340;12.432;2023-01-16T17:52:03;97064.81;;;9.21;49.75
61136;BME280;47021;51.340;12.432;2023-01-16T17:54:29;97057.50;;;9.44;49.14
61136;BME280;47021;51.340;12.432;2023-01-16T17:56:55;97074.97;;;9.63;48.37
61136;BME280;47021;51.340;12.432;2023-01-16T17:59:21;97076.00;;;9.62;47.69
61136;BME280;47021;51.340;12.432;2023-01-16T18:01:46;97072.13;;;9.45;47.40
61136;BME280;47021;51.340;12.432;2023-01-16T18:04:13;97068.53;;;9.46;47.25
61136;BME280;47021;51.340;12.432;2023-01-16T18:09:22;97053.97;;;9.65;47.10
61136;BME280;47021;51.340;12.432;2023-01-16T18:11:49;97055.31;;;9.48;47.56
61136;BME280;47021;51.340;12.432;2023-01-16T18:14:14;97051.50;;;9.44;48.00